OCREC2019 - STANDARD COURSE
OCR EUROPEAN CHAMPIONSHIPS
Organizator : Stowarzyszenie Biegów Przeszkodowych OCR Polska
Data : 2019-06-28
Miejsce : Gdynia
Dystans : 15 km
Zgłoszonych : 1362
Wystartowało : 1274
Nie ukończyło : 19
Ukończyło : 1255
Na trasie : 0
Pełne wyniki :
Uproszczone :
Klasyfikacje w punktach pomiarowych: Start | 9km | 10km | 14.9km | Meta
Klasyfikacja wg czasu brutto.
MscZawodnikNumerKlubMiejscowośćKrajKategoriaMkatK/MCzas startuPoint9_OCR
9km
Point10_OCR
10km
Spiker_OCR
14.9km
Czas
netto
15km
Czas
brutto
15km
Różn.Tempo
min/km
Tempo
km/h
          
1VANDEWALLE Billy 1227M 25-291M 1700:00:0101:02:1301:08:1501:48:0601:48:08.8001:48:10.50 7:128,3
2VLAM Thijs 1275M 25-292M 2600:00:0101:04:3601:10:2101:51:2601:51:31.1501:51:32.60+00:03:227:268,1
3MATUSEVICH Alexsey 1234M 25-293M 2800:00:0101:02:5801:08:3601:52:2201:52:25.5501:52:27.40+00:04:167:298,0
4CZERWIŃSKI Maciej 1261M 25-294M 3400:00:0001:12:2101:54:27.8501:54:27.85+00:06:177:377,9
5TOMASIK Alan 1268M 25-295M 3600:00:0101:05:0601:11:0301:55:3501:55:37.8501:55:39.50+00:07:297:427,8
6LORIS Pintarelli 1310M 25-296M 3800:00:0201:05:4001:11:0901:56:1401:56:18.9501:56:21.30+00:08:107:457,7
7CUENCA Aitor Garde 1248M 25-297M 3900:00:0201:04:4601:10:2201:56:1601:56:20.2001:56:22.75+00:08:127:457,7
8JANUSZEWSKI Bartosz 1263M 25-298M 4200:00:0201:06:1001:12:2701:57:1901:57:23.9001:57:26.05+00:09:157:497,7
9ZAKOLODKIN Roman 1230M 25-299M 4300:00:0201:08:0901:14:3601:57:3901:57:43.6001:57:45.65+00:09:357:507,6
10BRZOSKWINIA Wojciech 1239M 25-2910M 4500:00:0200:59:5701:05:1401:59:15.0501:59:17.55+00:11:077:577,5
11MUSSCHE Frans 1274M 25-2911M 4900:00:0101:09:3401:15:5702:01:0302:01:07.8502:01:09.55+00:12:598:047,4
12HANYK Lukáš 1231M 25-2912M 5000:00:0101:11:3901:18:2102:01:1102:01:14.8002:01:16.30+00:13:058:057,4
13KUPIS Łukasz 1224M 25-2913M 5900:00:0101:04:3101:10:1502:03:0202:03:11.2002:03:12.95+00:15:028:127,3
14SEMENCHENKO Vladimir 1252M 25-2914M 6300:00:0101:14:4201:20:5502:04:1202:04:17.0002:04:18.70+00:16:088:177,2
15PRYKOWSKI Tomasz 1256M 25-2915M 6500:00:0201:12:4001:19:3902:04:4802:04:51.4002:04:54.05+00:16:438:197,2
16RACZEK Radosław 1260M 25-2916M 6700:00:0101:08:4401:15:0602:05:1502:05:19.3502:05:21.20+00:17:108:217,2
17SCHINA Loris 1344M 25-2917M 7000:00:0101:05:4201:11:3302:05:3502:05:40.6502:05:41.95+00:17:318:227,2
18VIKTOROVICH Gruzdev Vladimir 1235M 25-2918M 8000:00:0301:10:0901:16:4302:07:5702:08:00.1002:08:03.50+00:19:538:327,0
19MACÍAS David Delgado 1335M 25-2919M 8500:00:0101:15:1201:21:3202:09:2802:09:31.0502:09:32.70+00:21:228:386,9
20BLANKENBURGH David 1317M 25-2920M 8600:00:0101:12:5601:19:2302:09:3002:09:34.7502:09:36.45+00:21:258:386,9
21HORWARD Adrien 1285M 25-2921M 10500:00:0201:10:4901:17:0602:15:5802:16:05.1002:16:07.10+00:27:569:046,6
22SENTEN Simon Van 1298M 25-2922M 10800:00:0101:14:3601:21:0902:17:3302:17:38.4502:17:40.20+00:29:299:106,5
23REZNIK Anton 1243M 25-2923M 10900:00:0201:21:0601:28:3502:17:3702:17:42.3502:17:44.50+00:29:349:106,5
24NITTIS Andrea De 1328M 25-2924M 11100:00:0101:18:3201:24:3002:17:5402:18:00.0002:18:01.60+00:29:519:126,5
25MĘDYGRAŁ Krystian 1290M 25-2925M 11600:00:0101:19:3101:26:0002:18:50.8502:18:52.70+00:30:429:156,5
26GRZONDKO Mateusz 1272M 25-2926M 12200:00:0101:19:4401:26:4402:20:18.9502:20:20.80+00:32:109:216,4
27VERHEUL Paul Pieter Cornelis 1316M 25-2927M 12300:00:0101:18:4101:25:4002:20:23.3002:20:25.15+00:32:149:216,4
28YAROSLAV Slavushchev 1236M 25-2928M 12400:00:0201:14:4601:22:0102:20:1902:20:23.3002:20:25.35+00:32:149:216,4
29GUIBERT Romain 1245M 25-2929M 12500:00:0101:15:1701:21:5202:21:0302:21:07.7502:21:09.40+00:32:589:246,4
30JAGODZIŃSKI Karol 1293M 25-2930M 13200:00:0201:21:2901:27:5702:23:17.5002:23:19.80+00:35:099:336,3
31FRANCESCHI Marco 1313M 25-2931M 14000:00:0101:17:2101:23:1402:25:2402:25:29.4002:25:31.25+00:37:209:426,2
32TOMAKA Tomasz 1284M 25-2932M 14300:00:0201:23:4901:30:5402:26:1102:26:17.0502:26:19.35+00:38:089:456,2
33MAES Michaël 1266M 25-2933M 14500:00:0201:16:4001:23:0102:26:1902:26:23.2002:26:25.30+00:38:149:456,1
34JUSTESEN Simon 1384M 25-2934M 14900:00:0201:23:5101:30:5602:29:3502:29:40.6502:29:43.35+00:41:329:586,0
35SZCZEPANIAK Paweł 1225M 25-2935M 15100:00:0101:22:3301:28:5302:29:5002:29:53.7002:29:55.35+00:41:449:596,0
36MÓWIŃSKI Patryk 1277M 25-2936M 16000:00:0201:24:4301:31:0802:32:5802:33:02.9002:33:05.20+00:44:5410:125,9
37MARTIN Darren 1311M 25-2937M 16100:00:0201:14:3301:21:1102:33:0702:33:11.8502:33:14.25+00:45:0310:125,9
38TIMMERMANS Geert 1280M 25-2938M 16900:00:0101:28:5301:35:4002:34:1202:34:17.5502:34:19.35+00:46:0810:175,8
39MARTYIN László 1279M 25-2939M 19000:00:0201:17:5001:24:0202:38:5802:39:01.4502:39:03.75+00:50:5310:365,7
40LEJK Beniamin 1357M 25-2940M 20100:00:0101:26:0001:32:5402:40:5202:40:56.0502:40:57.85+00:52:4710:435,6
41LARSSON Johannes 1327M 25-2941M 20600:00:0201:30:1701:36:5902:42:3002:42:33.9002:42:36.50+00:54:2610:505,5
42MARCO Bischof 1338M 25-2942M 21500:00:0201:19:3901:26:2302:45:5402:46:03.6502:46:05.80+00:57:5511:045,4
43PONTICELLI Luigi 1380M 25-2943M 21800:00:0202:47:3102:47:36.5002:47:38.95+00:59:2811:105,4
44LLAPASSET Victor 1314M 25-2944M 21900:00:0101:26:5901:34:3002:47:5802:48:05.8502:48:07.80+00:59:5711:125,4
45VEPŘEK Martin 1249M 25-2945M 22100:00:0101:23:4901:30:3302:48:4302:48:47.3002:48:49.15+01:00:3811:155,3
46LINDSTRÖM Mattias 1242M 25-2946M 22500:00:0201:34:0901:42:2102:50:1802:50:24.3502:50:27.30+01:02:1611:215,3
47LENOIR Cyril 1283M 25-2947M 22900:00:0201:38:4701:46:4002:51:1402:51:21.7002:51:23.80+01:03:1311:255,3
48BUYLE Michiel 1273M 25-2948M 23100:00:0101:20:2301:27:1102:51:4302:51:50.3502:51:52.10+01:03:4111:275,2
49LEGANDER Simon 1324M 25-2949M 23400:00:0201:24:2701:32:0702:53:1102:53:18.7502:53:20.80+01:05:1011:335,2
50NUTIL Michal 1345M 25-2950M 23800:00:0201:19:5201:25:5802:54:1402:54:17.3002:54:19.85+01:06:0911:375,2
51LARSSON Toni 1378M 25-2951M 24500:00:0201:37:3501:45:0802:55:0702:55:10.7002:55:13.55+01:07:0311:405,1
52ZAWILIŃSKI Mateusz 1351M 25-2952M 24600:00:0101:38:4501:45:1902:55:2702:55:30.8502:55:32.20+01:07:2111:425,1
53GUIJARRO Victor Pezonaga 1391M 25-2953M 26500:00:0101:20:3001:26:5403:00:01.0003:00:02.15+01:11:5112:005,0
54CRESPO Antonio Rubio 1303M 25-2954M 26600:00:0201:34:5701:41:5203:00:0403:00:08.7003:00:11.25+01:12:0012:005,0
55CAVICCHIOLO Luca 1355M 25-2955M 27100:00:0101:25:2701:31:5303:01:3903:01:44.9503:01:46.45+01:13:3512:075,0
56ROSECKÝ Patrik 1251M 25-2956M 27900:00:0201:31:2701:39:0503:04:1603:04:24.0003:04:26.60+01:16:1612:174,9
57DIMITRY Dotrimont 1367M 25-2957M 28600:00:0101:39:1001:45:4003:07:4003:07:46.1003:07:47.30+01:19:3612:314,8
58PIANO Andrea Del 1254M 25-2958M 28900:00:0101:11:2701:17:5503:09:0103:09:10.1503:09:11.65+01:21:0112:364,8
59WITEK Paweł 1373M 25-2959M 29100:00:0201:38:2901:45:5403:09:5703:10:03.3003:10:05.40+01:21:5412:404,7
60ATAZ Daniel Blanco 1341M 25-2960M 29500:00:0101:33:3001:40:0103:11:1903:11:25.1003:11:26.65+01:23:1612:454,7
61POŚPIECH Krzysztof Pawlak 1296M 25-2961M 29900:00:0201:48:0801:54:3303:13:0203:13:10.9503:13:13.05+01:25:0212:524,7
62DENTALE Armando 1379M 25-2962M 30000:00:0203:13:2803:13:33.5503:13:35.80+01:25:2512:544,6
63PETERKA Tomáš 1368M 25-2963M 30500:00:0201:37:4301:44:4303:16:3203:16:39.5503:16:41.80+01:28:3113:064,6
64KEANE Josh 1278M 25-2964M 31500:00:0201:26:3401:34:0803:20:2103:20:26.8503:20:28.95+01:32:1813:214,5
65MANTYCKI Rafał 1329M 25-2965M 31800:00:0101:36:1801:43:0803:21:4703:21:51.4503:21:53.40+01:33:4213:274,5
66ZHVIKOV Oleg 1321M 25-2966M 32700:00:0202:06:2802:14:1603:25:0603:25:11.2003:25:13.55+01:37:0313:404,4
67FLEISCHHAUER Felix 1312M 25-2967M 33300:00:0201:35:3601:42:5503:27:3103:27:37.9003:27:40.20+01:39:2913:504,3
68WAKTER Jacob 1385M 25-2968M 33600:00:0301:34:0401:42:1003:28:1603:28:20.2503:28:23.40+01:40:1213:534,3
69ELSGART Niklas 1352M 25-2969M 35200:00:0101:40:0101:47:0303:33:1603:33:20.1003:33:21.80+01:45:1114:134,2
70MAKAROV Andrei 1246M 25-2970M 35700:00:0201:41:5401:49:2603:34:3203:34:36.4503:34:38.90+01:46:2814:184,2
71SCHWEIGERT Matthias 1377M 25-2971M 36400:00:0201:28:4801:35:4003:38:3703:38:40.2503:38:42.70+01:50:3214:344,1
72FIGUEIREDO Rui Pedro Cruz 1302M 25-2972M 36800:00:0102:04:4302:13:2703:40:4503:41:12.8003:41:14.75+01:53:0414:444,1
73HORÁK Jaromír 1362M 25-2973M 40000:00:0201:47:3901:55:5103:56:3403:56:38.3503:56:40.55+02:08:3015:463,8
74TRUJILLO Fernando Pajuelo 1287M 25-2974M 42000:00:0102:04:0002:12:2804:04:3404:04:43.0004:04:44.55+02:16:3416:183,7
75PELUSI Jacopo 1381M 25-2975M 43300:00:0201:56:1602:04:1704:15:0604:15:13.6004:15:16.55+02:27:0617:003,5
76HANSEN Jonas 1237M 25-2976M 43400:00:0201:41:0801:49:0104:15:3604:15:43.9504:15:46.80+02:27:3617:023,5
77BURANI Cristian 1369M 25-2977M 44100:00:0101:52:4602:00:5704:19:5304:20:00.2004:20:01.85+02:31:5117:203,5
78VOROBOK Lukáš 1241M 25-2978M 44400:00:0201:25:4801:31:4004:22:4604:22:50.6004:22:52.90+02:34:4217:313,4
79DIETRICH Raphaël 1371M 25-2979M 46000:00:0101:38:2401:45:1504:37:2904:37:37.5004:37:39.35+02:49:2818:303,2
80VERLAAT Kees 1388M 25-2980M 46400:00:0101:26:2101:33:3404:40:4804:40:53.1004:40:54.65+02:52:4418:433,2
81ZIELIŃSKI Bartosz 1350M 25-2981M 47000:00:0201:59:1902:07:4004:49:3404:49:41.3504:49:43.75+03:01:3319:183,1
82JACIÓW Paweł 1389M 25-2982M 49200:00:0201:51:5601:59:4005:25:4105:25:49.4005:25:51.60+03:37:4121:432,8
Przekroczony limit czasu: 05:30:00
83RODRIGUES Alexandre 1366M 25-2983M 49900:00:0102:42:3402:52:1307:00:57.4007:00:59.20+05:12:4828:032,1
Niesklasyfikowani
DNCZIMMERMANN Till 1240M 25-2900:00:0101:08:5901:15:0602:21:0602:21:30.8502:21:32.000:006,4
DNCFISCHER Oliver 1259M 25-2900:00:0201:35:3501:41:3002:23:13.1002:23:15.150:006,3
DNCWÅGAN André 1255M 25-2900:00:0201:16:1001:22:5002:27:3402:27:42.3002:27:44.900:006,1
DNCPÉREZ Sergio Gómez 1382M 25-2900:00:0101:18:3201:24:4602:36:4302:36:59.3502:37:00.900:005,7
DNCLEDO Adrián 1364M 25-2900:00:0101:12:5101:19:2802:37:08.6502:37:10.100:005,7
DNCCHRISTOPHER Bailly 1286M 25-2900:00:0101:21:5501:27:3202:39:0702:39:17.2502:39:18.900:005,7
DNCOCHERETIUK Andrii 1271M 25-2900:00:0201:22:0001:28:1303:01:4703:01:56.8003:01:59.250:004,9
DNCBENICEWICZ Kacper 1299M 25-2900:00:0101:53:2002:00:4603:03:0003:03:06.6503:03:08.100:004,9
DNCSANTOS Luis 1292M 25-2900:00:0101:39:5101:47:0703:04:1003:04:19.4503:04:20.850:004,9
DNCFELLDIN Markus 1387M 25-2900:00:0201:54:4902:01:3703:06:3503:06:43.5003:06:46.050:004,8
DNCNOWAK Lukasz 1354M 25-2900:00:0201:58:0702:05:3403:11:3703:11:44.2503:11:46.500:004,7
DNCKORTHOUT Bruce 1315M 25-2900:00:0101:47:4401:54:1803:17:0203:17:08.1503:17:10.000:004,6
DNCSCHEFER Erik 1319M 25-2900:00:0201:46:4601:53:3503:17:0603:17:17.8503:17:20.400:004,6
DNCMACIEJEWSKI Krystian 1334M 25-2900:00:0202:12:5802:18:5903:17:2603:17:33.3503:17:36.200:004,6
DNCPROCHASSON Baptiste 1265M 25-2900:00:0201:34:2601:41:2403:19:4803:19:57.0503:19:59.200:004,5
DNCROEFFAERS Sander 1376M 25-2900:00:0001:55:5202:04:5603:23:2903:23:39.0003:23:39.000:004,4
DNCKRITIKOS Ilias 1233M 25-2900:00:0202:15:5602:23:5703:27:0403:27:12.3503:27:14.900:004,3
DNCMELIS Giacomo 1370M 25-2900:00:0201:51:3001:57:4403:30:0303:30:11.9503:30:14.000:004,3
DNCMAXIMOV Andrey 1262M 25-2900:00:0201:26:1001:33:0103:32:4203:32:51.4503:32:54.100:004,2
DNCMARONGIU Andrea 1322M 25-2900:00:0201:37:2801:45:0803:33:1703:33:27.1003:33:29.350:004,2
DNCJOHANSSON Tom 1238M 25-2900:00:0401:39:1601:46:2603:35:5503:36:11.3003:36:15.900:004,2
DNCBRONS Sonny 1244M 25-2900:00:0101:31:0501:37:5703:37:2403:37:32.6503:37:34.450:004,1
DNCDUUREN Ruben Van 1294M 25-2900:00:0101:45:2401:52:1603:38:4903:38:58.0003:38:59.850:004,1
DNCENDEJANN Raphael 1360M 25-2900:00:0102:07:0602:14:5503:39:5403:40:02.2003:40:03.700:004,1
DNCCHILDS Jake 1320M 25-2900:00:0202:11:3002:20:4603:40:0203:40:09.7003:40:12.400:004,1
DNCSVENSSON Nicklas 1347M 25-2900:00:0202:04:0502:10:3403:41:0703:41:13.9003:41:16.800:004,1
DNCDESCHAMPS Emmanuel 1363M 25-2900:00:0101:39:0701:45:2203:41:1803:41:27.1003:41:28.750:004,1
DNCZALEWSKI Michał 1372M 25-2900:00:0101:39:2801:46:1103:43:4203:43:49.8003:43:51.500:004,0
DNCDMUCH Jakub 1267M 25-2900:00:0101:29:2401:36:1103:45:1203:45:22.1503:45:23.550:004,0
DNCJOHANSEN Philip Hust 1229M 25-2900:00:0201:49:2701:56:0303:45:3403:45:43.6503:45:46.550:004,0
DNCTERETA Ivan 1257M 25-2900:00:0201:41:1701:48:1803:47:4303:47:53.3003:47:56.200:003,9
DNCALEXANDRE Renato 1305M 25-2900:00:0202:07:5202:16:5803:50:1403:50:26.7503:50:29.200:003,9
DNCKAMIONKA Mateusz 1269M 25-2900:00:0201:29:0101:35:5403:53:3303:53:48.8503:53:50.950:003,8
DNCMARTÍNEZ Rafael 1253M 25-2900:00:0101:19:4001:24:2003:54:5503:55:02.7003:55:04.200:003,8
DNCGIANNETTONI Lorenzo 1339M 25-2900:00:0201:20:2501:27:3103:54:4403:55:02.3003:55:04.750:003,8
DNCTORESÄTER Ludvig "Luddet" 1325M 25-2900:00:0202:20:2802:28:5703:55:1003:55:28.5503:55:30.900:003,8
DNCBONDARENKO Andriy 1323M 25-2900:00:0201:57:0502:04:3604:01:4104:01:50.6004:01:52.700:003,7
DNCLIESHOUT Frank Van 1258M 25-2900:00:0102:46:3502:52:0504:04:2804:04:34.0504:04:35.750:003,7
DNCTEJERO Javier Casado 1375M 25-2900:00:0102:13:2702:23:0404:05:1204:05:20.0504:05:21.700:003,7
DNCLÜPKE Sebastian 1304M 25-2900:00:0202:49:3802:54:2504:05:4004:05:48.7004:05:51.300:003,7
DNCČERVEŇÁK Radim 1295M 25-2900:00:0202:02:1702:08:3604:07:2404:07:31.5504:07:33.850:003,6
DNCARONSSON Alexander 1301M 25-2900:00:0202:17:3202:24:5604:09:3404:09:40.6004:09:43.400:003,6
DNCBRORSSON Sebastian 1390M 25-2900:00:0202:40:3302:47:1204:10:4504:10:52.1504:10:54.700:003,6
DNCPHILLIPS Alastair 1326M 25-2900:00:0202:43:4302:51:5904:15:1504:15:24.8504:15:27.400:003,5
DNCOSTERMEIER Gabriel 1264M 25-2900:00:0201:56:4302:04:5204:15:4304:15:50.2504:15:52.300:003,5
DNCMIKEL Marek 1386M 25-2900:00:0102:35:4702:43:0804:17:4104:17:47.8004:17:49.600:003,5
DNCPEÑA Miguel 1306M 25-2900:00:0201:58:0202:04:0304:17:4604:18:04.7004:18:07.550:003,5
DNCGANOTAKIS Emmanouil 1250M 25-2900:00:0202:39:1702:45:0504:31:0804:31:15.2504:31:18.050:003,3
DNCŻOŁNIEREK Wojciech 1291M 25-2900:00:0301:55:3302:03:1804:42:5404:43:00.1004:43:03.150:003,2
DNCJACOBSEN Peter 1276M 25-2900:00:0201:55:2202:03:3604:48:3404:48:43.0504:48:45.950:003,1
DNCRECHENBACH Tim 1356M 25-2900:00:0202:22:0502:30:0604:52:2104:52:29.9504:52:32.800:003,1
DNCDENIS Timakov 1228M 25-2900:03:0201:47:1201:53:4204:57:0304:57:13.8505:00:16.200:003,0
DNCKAUKOLA Henri 1232M 25-2900:03:0201:38:3501:45:1704:58:3004:58:39.3005:01:42.100:003,0
DNCWUNDERLICH Tobias 1361M 25-2900:00:0203:12:5903:20:0805:01:3005:01:47.1005:01:49.250:003,0
DNCSTENGER Morten 1358M 25-2900:00:0201:29:2701:36:3705:04:1205:04:21.8505:04:24.400:003,0
DNCHEATH Daniel 1332M 25-2900:00:0102:02:3802:08:5105:06:0605:06:12.8005:06:14.500:002,9
DNCDAVIDSON Richard 1383M 25-2900:00:0203:22:5403:30:2405:21:2005:21:23.8005:21:26.750:002,8
DNCOSTE Maarten 1353M 25-2900:00:0101:56:4902:03:4505:26:3105:26:49.0005:26:50.150:002,8
DNCTAMBURLANI Filippo 1333M 25-2900:00:0101:30:5801:37:4505:28:2205:28:31.2505:28:33.100:002,7
DNCPEDERSEN Peder Ejsing 1359M 25-2900:00:0201:51:2801:57:2005:31:5405:32:00.4505:32:03.050:002,7
DNCGINON Loïc 1270M 25-2900:00:0202:52:2202:59:4905:35:2105:35:27.3005:35:30.050:002,7
DNCCRISCI Marco 1340M 25-2900:00:0203:53:1004:02:1105:37:1005:37:21.7005:37:23.850:002,7
DNCЧИРКИН Алексей 1247M 25-2900:00:0202:38:5102:46:2905:41:5005:41:58.8005:42:01.050:002,6
DNCRAYNAUD Jimmy 1331M 25-2900:00:0101:39:0001:46:0206:01:1806:01:29.6006:01:30.950:002,5
DNCJOBANPUTRA Mayoor 1309M 25-2900:00:0202:53:4203:00:0506:03:0406:03:09.9506:03:12.300:002,5
DNCJAGER Robin De 1297M 25-2900:00:0102:29:2602:37:1606:16:1906:16:25.9006:16:27.850:002,4
DNCMARTOS Eduardo 1346M 25-2900:00:0103:56:2504:04:2406:21:0706:21:15.0006:21:16.750:002,4
DNCTIMSIT Romain 1300M 25-2900:00:0102:12:5302:20:5006:46:1406:46:24.4506:46:26.300:002,2
DNCBRACCAIOLI Lorenzo 1374M 25-2900:00:0101:38:3801:45:3206:47:1806:47:37.4506:47:38.600:002,2
DNCBELLIDO David Fernández 1336M 25-2900:00:0203:56:2404:04:2506:53:1506:53:23.6506:53:26.500:002,2
DNCRUKATUKL Alexander 1342M 25-2900:00:0204:46:0304:51:5407:25:0107:25:28.1007:25:30.350:002,0
DNCKOZIOŁ Kamil 1330M 25-2900:00:0103:40:5003:46:4207:25:3607:25:53.0007:25:54.500:002,0
DNCNAVARRO Cristian Manuel Madrid 1337M 25-2900:00:0203:56:2404:04:2108:15:2808:15:46.3508:15:49.000:001,8
KANSTRUP Nicolai 1226M 25-29DNF DNF DNF DNF DNF DNF--
Znaleziono 157 wynik(ów)